createdAt,value
2022-11-10T00:00:40.860Z,2.27
2022-11-10T00:03:09.465Z,2.47
2022-11-10T00:05:37.832Z,2.70
2022-11-10T00:08:06.164Z,2.40
2022-11-10T00:10:54.086Z,2.03
2022-11-10T00:13:23.966Z,2.07
2022-11-10T00:16:09.582Z,1.90
2022-11-10T00:18:37.414Z,2.20
2022-11-10T00:21:06.415Z,2.00
2022-11-10T00:23:34.204Z,2.20
2022-11-10T00:26:01.905Z,2.10
2022-11-10T00:28:32.604Z,2.30
2022-11-10T00:31:00.516Z,2.20
2022-11-10T00:33:28.220Z,2.47
2022-11-10T00:35:56.140Z,2.13
2022-11-10T00:38:23.898Z,2.50
2022-11-10T00:40:51.747Z,2.00
2022-11-10T00:43:25.325Z,2.70
2022-11-10T00:45:55.597Z,2.03
2022-11-10T00:48:23.531Z,2.53
2022-11-10T00:50:51.304Z,2.97
2022-11-10T00:53:19.957Z,2.43
2022-11-10T00:55:48.686Z,2.47
2022-11-10T00:58:16.490Z,2.70
2022-11-10T01:00:44.260Z,2.20
2022-11-10T01:03:16.130Z,2.17
2022-11-10T01:05:43.958Z,2.13
2022-11-10T01:08:11.897Z,2.27
2022-11-10T01:10:39.752Z,2.37
2022-11-10T01:13:07.457Z,2.40
2022-11-10T01:15:38.678Z,2.10
2022-11-10T01:18:06.466Z,2.47
2022-11-10T01:20:39.007Z,2.40
2022-11-10T01:23:16.449Z,1.97
2022-11-10T01:25:44.215Z,2.27
2022-11-10T01:28:11.972Z,2.00
2022-11-10T01:30:39.774Z,2.40
2022-11-10T01:33:07.537Z,2.23
2022-11-10T01:35:36.776Z,1.90
2022-11-10T01:38:21.650Z,2.47
2022-11-10T01:40:49.307Z,2.03
2022-11-10T01:43:17.255Z,2.43
2022-11-10T01:45:52.392Z,2.53
2022-11-10T01:48:30.939Z,2.23
2022-11-10T01:51:03.591Z,2.63
2022-11-10T01:53:32.063Z,2.30
2022-11-10T01:55:59.732Z,2.73
2022-11-10T01:58:30.114Z,2.87
2022-11-10T02:00:57.909Z,2.50
2022-11-10T02:03:28.690Z,2.47
2022-11-10T02:05:56.636Z,2.40
2022-11-10T02:08:26.114Z,2.77
2022-11-10T02:10:56.038Z,2.80
2022-11-10T02:13:24.064Z,2.87
2022-11-10T02:15:51.868Z,2.50
2022-11-10T02:18:19.590Z,2.53
2022-11-10T02:20:48.752Z,3.30
2022-11-10T02:23:31.879Z,2.97
2022-11-10T02:25:59.640Z,2.53
2022-11-10T02:28:27.508Z,2.50
2022-11-10T02:30:55.615Z,2.40
2022-11-10T02:33:23.622Z,2.43
2022-11-10T02:35:52.991Z,2.37
2022-11-10T02:38:20.794Z,2.10
2022-11-10T02:40:49.968Z,2.37
2022-11-10T02:43:18.271Z,2.47
2022-11-10T02:45:46.115Z,2.90
2022-11-10T02:48:14.708Z,2.30
2022-11-10T02:50:42.678Z,2.93
2022-11-10T02:53:11.999Z,2.93
2022-11-10T02:55:39.869Z,2.20
2022-11-10T02:58:07.704Z,2.90
2022-11-10T03:00:35.479Z,2.20
2022-11-10T03:03:03.502Z,2.60
2022-11-10T03:05:31.437Z,2.53
2022-11-10T03:07:59.822Z,2.83
2022-11-10T03:10:29.178Z,2.40
2022-11-10T03:12:57.481Z,3.17
2022-11-10T03:15:25.268Z,2.70
2022-11-10T03:17:53.116Z,2.87
2022-11-10T03:20:22.004Z,3.30
2022-11-10T03:22:49.751Z,3.03
2022-11-10T03:25:25.225Z,3.33
2022-11-10T03:27:54.349Z,2.80
2022-11-10T03:30:32.387Z,2.60
2022-11-10T03:33:00.439Z,2.83
2022-11-10T03:35:28.205Z,2.70
2022-11-10T03:37:55.979Z,2.70
2022-11-10T03:40:23.721Z,2.77
2022-11-10T03:42:51.398Z,3.10
2022-11-10T03:45:20.748Z,3.30
2022-11-10T03:47:48.683Z,3.30
2022-11-10T03:50:16.543Z,3.07
2022-11-10T03:52:45.042Z,3.23
2022-11-10T03:55:12.849Z,3.23
2022-11-10T03:57:40.635Z,3.73
2022-11-10T04:00:09.514Z,3.27
2022-11-10T04:02:38.597Z,3.80
2022-11-10T04:05:24.535Z,3.77
2022-11-10T04:08:15.170Z,3.10
2022-11-10T04:10:43.050Z,3.13
2022-11-10T04:13:28.173Z,3.37
2022-11-10T04:15:55.908Z,3.30
2022-11-10T04:18:29.595Z,2.93
2022-11-10T04:20:58.677Z,3.23
2022-11-10T04:23:31.125Z,3.37
2022-11-10T04:26:21.230Z,3.30
2022-11-10T04:28:50.545Z,3.20
2022-11-10T04:31:19.057Z,3.17
2022-11-10T04:33:48.556Z,4.17
2022-11-10T04:36:17.543Z,2.93
2022-11-10T04:38:45.552Z,3.30
2022-11-10T04:41:13.586Z,2.60
2022-11-10T04:43:41.546Z,3.53
2022-11-10T04:46:22.123Z,3.43
2022-11-10T04:48:51.501Z,3.37
2022-11-10T04:51:20.092Z,3.20
2022-11-10T04:53:48.084Z,3.43
2022-11-10T04:56:16.309Z,3.60
2022-11-10T04:58:44.194Z,3.20
2022-11-10T05:01:13.502Z,2.87
2022-11-10T05:03:41.665Z,2.93
2022-11-10T05:06:11.240Z,2.97
2022-11-10T05:08:39.304Z,3.13
2022-11-10T05:11:07.510Z,3.50
2022-11-10T05:13:36.797Z,3.17
2022-11-10T05:16:04.936Z,3.03
2022-11-10T05:18:32.932Z,2.97
2022-11-10T05:21:00.776Z,3.30
2022-11-10T05:23:39.147Z,3.10
2022-11-10T05:26:07.934Z,3.50
2022-11-10T05:28:35.904Z,3.60
2022-11-10T05:31:04.182Z,2.67
2022-11-10T05:33:32.046Z,3.00
2022-11-10T05:36:00.125Z,3.37
2022-11-10T05:38:29.562Z,3.87
2022-11-10T05:40:57.499Z,3.43
2022-11-10T05:43:25.852Z,3.50
2022-11-10T05:45:53.913Z,3.50
2022-11-10T05:48:21.871Z,2.90
2022-11-10T05:50:49.938Z,3.40
2022-11-10T05:53:17.909Z,3.83
2022-11-10T05:55:47.118Z,3.00
2022-11-10T05:58:15.358Z,3.73
2022-11-10T06:00:43.503Z,3.37
2022-11-10T06:03:14.508Z,3.00
2022-11-10T06:05:45.432Z,3.33
2022-11-10T06:08:13.278Z,2.90
2022-11-10T06:10:41.584Z,3.10
2022-11-10T06:13:10.832Z,3.10
2022-11-10T06:15:39.038Z,3.77
2022-11-10T06:18:07.033Z,2.97
2022-11-10T06:20:34.942Z,3.30
2022-11-10T06:23:03.959Z,4.07
2022-11-10T06:25:32.577Z,4.03
2022-11-10T06:28:00.570Z,3.07
2022-11-10T06:30:30.329Z,3.53
2022-11-10T06:32:58.800Z,3.50
2022-11-10T06:35:27.136Z,3.40
2022-11-10T06:37:59.046Z,3.43
2022-11-10T06:40:27.041Z,2.80
2022-11-10T06:42:54.902Z,3.60
2022-11-10T06:45:22.986Z,3.70
2022-11-10T06:48:00.915Z,4.27
2022-11-10T06:50:30.038Z,3.17
2022-11-10T06:53:00.525Z,3.53
2022-11-10T06:55:28.591Z,4.00
2022-11-10T06:57:56.626Z,3.47
2022-11-10T07:00:24.990Z,3.60
2022-11-10T07:03:05.576Z,3.57
2022-11-10T07:05:34.404Z,3.47
2022-11-10T07:08:05.606Z,2.93
2022-11-10T07:10:36.282Z,3.53
2022-11-10T07:13:05.589Z,3.47
2022-11-10T07:15:33.759Z,3.30
2022-11-10T07:18:06.251Z,2.97
2022-11-10T07:20:34.234Z,3.47
2022-11-10T07:23:02.622Z,3.57
2022-11-10T07:25:31.373Z,3.30
2022-11-10T07:27:59.966Z,2.70
2022-11-10T07:30:28.061Z,2.83
2022-11-10T07:33:00.172Z,3.40
2022-11-10T07:35:29.486Z,3.07
2022-11-10T07:37:57.608Z,2.80
2022-11-10T07:40:25.829Z,3.70
2022-11-10T07:42:53.962Z,2.93
2022-11-10T07:45:21.801Z,3.70
2022-11-10T07:47:50.302Z,3.17
2022-11-10T07:50:18.443Z,3.23
2022-11-10T07:52:47.767Z,3.03
2022-11-10T07:55:15.826Z,2.83
2022-11-10T07:57:43.855Z,3.67
2022-11-10T08:00:13.592Z,2.80
2022-11-10T08:02:41.706Z,2.80
2022-11-10T08:05:10.397Z,3.23
2022-11-10T08:07:38.295Z,2.97
2022-11-10T08:10:09.460Z,3.20
2022-11-10T08:12:37.281Z,3.67
2022-11-10T08:15:05.950Z,4.13
2022-11-10T08:17:34.142Z,3.30
2022-11-10T08:20:02.594Z,3.27
2022-11-10T08:22:30.585Z,3.00
2022-11-10T08:24:58.582Z,2.60
2022-11-10T08:27:28.582Z,3.27
2022-11-10T08:29:56.548Z,2.77
2022-11-10T08:32:28.826Z,3.17
2022-11-10T08:34:56.966Z,3.07
2022-11-10T08:37:24.867Z,2.60
2022-11-10T08:39:53.103Z,3.43
2022-11-10T08:42:24.281Z,3.23
2022-11-10T08:44:58.192Z,2.90
2022-11-10T08:47:26.186Z,2.87
2022-11-10T08:49:57.619Z,3.23
2022-11-10T08:52:25.948Z,7.60
2022-11-10T08:54:54.487Z,2.87
2022-11-10T08:57:22.553Z,2.83
2022-11-10T08:59:50.852Z,2.90
2022-11-10T09:02:21.149Z,3.57
2022-11-10T09:04:49.411Z,2.70
2022-11-10T09:07:18.807Z,2.70
2022-11-10T09:10:01.485Z,3.20
2022-11-10T09:12:35.667Z,3.10
2022-11-10T09:15:03.727Z,2.73
2022-11-10T09:17:35.502Z,3.17
2022-11-10T09:20:08.524Z,3.23
2022-11-10T09:22:44.832Z,3.03
2022-11-10T09:25:25.148Z,2.73
2022-11-10T09:27:53.116Z,3.20
2022-11-10T09:30:21.396Z,3.07
2022-11-10T09:32:56.287Z,2.60
2022-11-10T09:35:24.824Z,2.93
2022-11-10T09:37:57.036Z,2.97
2022-11-10T09:40:34.760Z,3.10
2022-11-10T09:43:03.603Z,3.23
2022-11-10T09:45:38.670Z,2.92
2022-11-10T09:48:17.053Z,2.20
2022-11-10T09:50:48.205Z,2.83
2022-11-10T09:53:22.723Z,2.78
2022-11-10T09:55:54.424Z,2.75
2022-11-10T09:58:27.136Z,2.22
2022-11-10T10:01:04.373Z,2.72
2022-11-10T10:03:34.873Z,2.97
2022-11-10T10:06:06.457Z,3.30
2022-11-10T10:08:44.225Z,3.30
2022-11-10T10:11:20.140Z,3.35
2022-11-10T10:14:13.481Z,2.30
2022-11-10T10:16:44.145Z,2.63
2022-11-10T11:10:58.523Z,3.00
2022-11-10T11:13:32.875Z,3.05
2022-11-10T12:05:41.835Z,2.45
2022-11-10T12:16:03.991Z,2.90
2022-11-10T12:35:14.503Z,1.85
2022-11-10T12:46:07.848Z,1.95
2022-11-10T12:48:51.436Z,1.52
2022-11-10T12:52:09.265Z,2.53
2022-11-10T12:54:37.034Z,1.98
2022-11-10T12:57:06.579Z,2.00
2022-11-10T13:14:21.395Z,2.08
2022-11-10T13:16:56.475Z,1.50
2022-11-10T13:19:53.487Z,1.38
2022-11-10T13:22:55.438Z,1.45
2022-11-10T13:25:54.351Z,1.43
2022-11-10T13:29:03.250Z,1.60
2022-11-10T13:32:12.323Z,1.33
2022-11-10T13:34:48.656Z,1.50
2022-11-10T13:37:51.006Z,1.10
2022-11-10T13:40:31.232Z,1.50
2022-11-10T13:43:29.796Z,1.17
2022-11-10T13:46:03.515Z,1.30
2022-11-10T13:48:47.274Z,1.80
2022-11-10T13:51:29.724Z,1.90
2022-11-10T13:54:05.579Z,2.23
2022-11-10T13:56:54.506Z,1.50
2022-11-10T13:59:23.369Z,1.50
2022-11-10T14:02:29.590Z,1.50
2022-11-10T14:04:59.308Z,1.30
2022-11-10T14:07:30.294Z,1.43
2022-11-10T14:09:58.529Z,1.47
2022-11-10T14:12:28.802Z,1.33
2022-11-10T14:15:02.174Z,1.13
2022-11-10T14:17:32.360Z,1.30
2022-11-10T14:20:01.680Z,1.50
2022-11-10T14:22:33.702Z,1.17
2022-11-10T14:25:04.402Z,1.80
2022-11-10T14:27:33.214Z,1.70
2022-11-10T14:30:07.268Z,1.50
2022-11-10T14:32:35.654Z,1.53
2022-11-10T14:35:05.865Z,1.40
2022-11-10T14:37:33.633Z,1.40
2022-11-10T14:40:02.495Z,1.73
2022-11-10T14:42:31.353Z,1.33
2022-11-10T14:45:09.524Z,1.20
2022-11-10T14:47:37.682Z,1.50
2022-11-10T14:50:16.115Z,1.30
2022-11-10T14:52:44.379Z,1.40
2022-11-10T14:55:16.181Z,0.97
2022-11-10T14:57:48.221Z,1.63
2022-11-10T15:00:19.606Z,1.80
2022-11-10T15:02:47.410Z,1.60
2022-11-10T15:05:16.810Z,1.43
2022-11-10T15:07:44.693Z,1.60
2022-11-10T15:10:16.291Z,1.40
2022-11-10T15:12:43.957Z,1.50
2022-11-10T15:15:22.462Z,1.67
2022-11-10T15:17:51.389Z,1.70
2022-11-10T15:20:34.961Z,1.63
2022-11-10T15:23:03.376Z,1.30
2022-11-10T15:25:38.502Z,1.90
2022-11-10T15:28:15.772Z,1.70
2022-11-10T15:30:51.468Z,1.53
2022-11-10T15:33:22.694Z,1.40
2022-11-10T15:35:51.981Z,1.33
2022-11-10T15:38:32.773Z,1.47
2022-11-10T15:41:14.226Z,1.47
2022-11-10T15:43:42.127Z,2.10
2022-11-10T15:46:17.796Z,1.87
2022-11-10T15:48:47.315Z,1.90
2022-11-10T15:51:22.859Z,2.30
2022-11-10T15:53:54.420Z,2.17
2022-11-10T15:56:23.683Z,1.77
2022-11-10T15:58:59.102Z,1.93
2022-11-10T16:01:30.217Z,2.00
2022-11-10T16:03:58.401Z,2.03
2022-11-10T16:06:30.226Z,1.90
2022-11-10T16:08:58.845Z,2.23
2022-11-10T16:11:27.220Z,2.07
2022-11-10T16:13:55.594Z,1.87
2022-11-10T16:16:24.570Z,1.50
2022-11-10T16:18:52.842Z,1.97
2022-11-10T16:21:22.398Z,4.23
2022-11-10T16:23:52.312Z,2.03
2022-11-10T16:26:22.948Z,2.33
2022-11-10T16:28:52.024Z,6.97
2022-11-10T16:31:22.019Z,2.20
2022-11-10T16:33:50.548Z,5.60
2022-11-10T16:36:23.474Z,2.17
2022-11-10T16:38:53.579Z,2.23
2022-11-10T16:41:22.566Z,1.67
2022-11-10T16:43:51.216Z,1.47
2022-11-10T16:46:21.744Z,2.10
2022-11-10T16:48:50.365Z,2.53
2022-11-10T16:51:19.544Z,2.00
2022-11-10T16:53:48.241Z,2.07
2022-11-10T16:56:20.808Z,2.33
2022-11-10T16:58:49.295Z,2.93
2022-11-10T17:01:20.154Z,2.07
2022-11-10T17:03:49.511Z,2.50
2022-11-10T17:06:18.884Z,2.13
2022-11-10T17:08:47.983Z,2.47
2022-11-10T17:11:18.074Z,2.87
2022-11-10T17:13:46.819Z,3.03
2022-11-10T17:16:19.337Z,2.00
2022-11-10T17:18:47.927Z,2.50
2022-11-10T17:21:16.643Z,2.00
2022-11-10T17:23:47.372Z,2.93
2022-11-10T17:26:17.620Z,2.10
2022-11-10T17:28:45.464Z,2.10
2022-11-10T17:31:14.223Z,2.57
2022-11-10T17:33:42.231Z,2.50
2022-11-10T17:36:13.538Z,2.70
2022-11-10T17:38:41.559Z,2.37
2022-11-10T17:41:10.026Z,2.57
2022-11-10T17:43:44.336Z,3.40
2022-11-10T17:46:13.308Z,2.80
2022-11-10T17:48:41.224Z,3.20
2022-11-10T17:51:11.036Z,6.97
2022-11-10T17:53:38.779Z,3.00
2022-11-10T17:56:06.910Z,3.37
2022-11-10T17:58:36.001Z,5.83
2022-11-10T18:01:15.030Z,3.77
2022-11-10T18:03:42.943Z,3.40
2022-11-10T18:06:14.276Z,3.67
2022-11-10T18:08:42.124Z,3.40
2022-11-10T18:11:10.223Z,3.43
2022-11-10T18:13:38.295Z,3.40
2022-11-10T18:16:08.972Z,3.20
2022-11-10T18:18:36.889Z,2.57
2022-11-10T18:21:04.809Z,2.60
2022-11-10T18:23:32.569Z,2.83
2022-11-10T18:26:04.406Z,3.53
2022-11-10T18:28:32.273Z,3.10
2022-11-10T18:31:00.101Z,3.27
2022-11-10T18:33:29.515Z,2.70
2022-11-10T18:35:59.838Z,3.60
2022-11-10T18:38:27.695Z,3.07
2022-11-10T18:40:55.473Z,3.03
2022-11-10T18:43:23.467Z,3.30
2022-11-10T18:45:53.683Z,4.07
2022-11-10T18:48:27.229Z,3.90
2022-11-10T18:50:58.644Z,4.17
2022-11-10T18:53:28.167Z,6.13
2022-11-10T18:55:56.917Z,3.37
2022-11-10T18:58:24.833Z,3.30
2022-11-10T19:00:52.668Z,3.93
2022-11-10T19:03:20.865Z,3.30
2022-11-10T19:05:55.726Z,3.43
2022-11-10T19:08:28.214Z,3.50
2022-11-10T19:10:56.137Z,3.80
2022-11-10T19:13:24.393Z,3.60
2022-11-10T19:15:52.456Z,3.53
2022-11-10T19:18:20.237Z,3.33
2022-11-10T19:20:48.223Z,3.63
2022-11-10T19:23:16.070Z,3.57
2022-11-10T19:25:46.792Z,4.00
2022-11-10T19:28:14.566Z,3.77
2022-11-10T19:30:42.380Z,4.10
2022-11-10T19:33:10.216Z,3.50
2022-11-10T19:35:42.274Z,3.40
2022-11-10T19:38:10.021Z,4.10
2022-11-10T19:40:39.157Z,3.70
2022-11-10T19:43:08.586Z,5.07
2022-11-10T19:45:36.331Z,3.50
2022-11-10T19:48:04.457Z,3.13
2022-11-10T19:50:32.173Z,3.70
2022-11-10T19:52:59.974Z,3.50
2022-11-10T19:55:27.749Z,6.60
2022-11-10T19:57:55.523Z,6.90
2022-11-10T20:00:24.760Z,3.17
2022-11-10T20:02:52.651Z,3.50
2022-11-10T20:05:20.382Z,3.20
2022-11-10T20:08:09.707Z,3.20
2022-11-10T20:10:37.644Z,3.80
2022-11-10T20:13:05.417Z,4.33
2022-11-10T20:15:34.542Z,6.53
2022-11-10T20:18:02.919Z,3.30
2022-11-10T20:20:30.750Z,3.30
2022-11-10T20:23:01.884Z,3.37
2022-11-10T20:25:29.795Z,3.30
2022-11-10T20:27:57.730Z,3.77
2022-11-10T20:30:25.731Z,3.60
2022-11-10T20:32:54.910Z,3.80
2022-11-10T20:35:22.719Z,3.23
2022-11-10T20:37:50.621Z,3.63
2022-11-10T20:40:42.948Z,3.40
2022-11-10T20:43:06.346Z,3.17
2022-11-10T20:45:34.126Z,3.40
2022-11-10T20:48:03.231Z,3.57
2022-11-10T20:50:31.028Z,3.60
2022-11-10T20:52:58.867Z,3.53
2022-11-10T20:55:52.028Z,3.50
2022-11-10T20:58:14.405Z,3.20
2022-11-10T21:00:43.721Z,3.40
2022-11-10T21:03:12.947Z,3.20
2022-11-10T21:05:40.811Z,3.87
2022-11-10T21:08:08.562Z,3.20
2022-11-10T21:10:36.376Z,3.67
2022-11-10T21:13:04.168Z,3.43
2022-11-10T21:15:32.018Z,3.90
2022-11-10T21:17:59.804Z,3.90
2022-11-10T21:20:29.020Z,6.67
2022-11-10T21:23:03.012Z,3.67
2022-11-10T21:25:31.113Z,3.80
2022-11-10T21:27:58.878Z,4.17
2022-11-10T21:30:26.600Z,4.30
2022-11-10T21:32:54.400Z,4.23
2022-11-10T21:35:22.278Z,3.70
2022-11-10T21:37:51.369Z,3.87
2022-11-10T21:40:19.209Z,3.70
2022-11-10T21:42:46.937Z,3.87
2022-11-10T21:45:14.801Z,4.30
2022-11-10T21:47:42.587Z,4.10
2022-11-10T21:50:10.498Z,4.27
2022-11-10T21:52:38.731Z,4.90
2022-11-10T21:55:09.528Z,4.47
2022-11-10T21:57:37.275Z,4.30
2022-11-10T22:00:05.923Z,3.53
2022-11-10T22:02:33.671Z,3.73
2022-11-10T22:05:01.439Z,4.17
2022-11-10T22:07:29.183Z,3.93
2022-11-10T22:10:14.616Z,4.17
2022-11-10T22:13:01.652Z,4.70
2022-11-10T22:15:46.829Z,3.47
2022-11-10T22:18:33.036Z,4.30
2022-11-10T22:21:00.731Z,3.60
2022-11-10T22:23:46.124Z,3.93
2022-11-10T22:26:13.998Z,3.80
2022-11-10T22:28:43.145Z,4.13
2022-11-10T22:31:11.224Z,3.97
2022-11-10T22:33:39.842Z,3.73
2022-11-10T22:36:12.935Z,3.43
2022-11-10T22:38:41.495Z,3.40
2022-11-10T22:41:30.822Z,3.97
2022-11-10T22:44:06.242Z,4.30
2022-11-10T22:46:35.092Z,3.60
2022-11-10T22:49:03.006Z,4.37
2022-11-10T22:51:31.272Z,3.73
2022-11-10T22:53:59.061Z,4.47
2022-11-10T22:56:26.903Z,3.97
2022-11-10T22:58:59.563Z,4.37
2022-11-10T23:01:29.257Z,4.40
2022-11-10T23:03:58.225Z,4.40
2022-11-10T23:06:26.087Z,4.57
2022-11-10T23:08:53.780Z,4.70
2022-11-10T23:11:22.520Z,4.10
2022-11-10T23:13:50.724Z,3.93
2022-11-10T23:16:19.611Z,4.37
2022-11-10T23:18:49.640Z,4.10
2022-11-10T23:21:18.769Z,4.87
2022-11-10T23:23:46.832Z,4.60
2022-11-10T23:28:49.404Z,4.40
2022-11-10T23:31:18.038Z,4.77
2022-11-10T23:33:46.541Z,5.10
2022-11-10T23:36:16.150Z,4.07
2022-11-10T23:38:43.998Z,5.17
2022-11-10T23:41:15.101Z,5.10
2022-11-10T23:43:43.857Z,4.63
2022-11-10T23:46:16.098Z,4.67
2022-11-10T23:48:45.025Z,4.87
2022-11-10T23:51:14.919Z,4.90
2022-11-10T23:53:45.320Z,4.83
2022-11-10T23:56:14.668Z,4.17
2022-11-10T23:58:43.337Z,4.33
